Latest Weather Observations for Nambour

IDQ60801

Issued at 5:35 pm EST Wednesday 1 October 2014 (issued every 30 minutes, with the page automatically refreshed every 10 minutes)

About weather observations | Map of weather stations | Latest weather observations for QLD | Other Formats
Station Details ID: 040988 Name: NAMBOUR DAFF - HILLSIDE Lat: -26.64 Lon: 152.94 Height: 53.24 m
Data from the previous 72 hours. | See also: Recent months at Nambour
Date/Time
EST
Temp
°C
App
Temp
°C
Dew
Point
Rel
Hum
%
Delta-T
°C
Wind Press
QNH
hPa
Press
MSL
hPa
Rain
since 9 am
mm
Dir
 
Spd
km/h
Gust
km/h
Spd
kts
Gust
kts
01/05:30pm 24.6 26.5 16.6 61 4.9 NE 2 6 1 3 1012.8 1012.6 0.0
01/05:00pm 26.4 28.1 16.3 53 6.2 E 2 6 1 3 1012.6 1012.4 0.0
01/04:30pm 27.3 28.2 16.0 50 7.0 ENE 6 9 3 5 1012.4 1012.2 0.0
01/04:00pm 28.1 28.5 16.4 49 7.3 E 9 15 5 8 1012.2 1012.0 0.0
01/03:30pm 28.8 29.1 16.0 45 7.9 E 9 17 5 9 1012.0 1011.8 0.0
01/03:00pm 29.8 29.8 15.1 40 9.0 E 9 15 5 8 1012.3 1012.1 0.0
01/02:30pm 31.9 30.9 12.2 30 11.7 N 9 15 5 8 1012.5 1012.3 0.0
01/02:00pm 31.5 30.5 13.3 33 10.9 NNE 11 22 6 12 1012.8 1012.6 0.0
01/01:30pm 30.8 29.6 11.7 31 11.2 N 9 15 5 8 1013.3 1013.1 0.0
01/01:00pm 30.4 29.7 11.9 32 10.8 N 7 17 4 9 1013.8 1013.6 0.0
01/12:30pm 29.8 29.3 12.7 35 10.1 N 7 20 4 11 1014.4 1014.2 0.0
01/12:00pm 29.4 29.3 14.0 39 9.3 NNE 7 13 4 7 1015.0 1014.8 0.0
01/11:30am 28.5 27.9 12.4 37 9.4 WNW 7 11 4 6 1015.9 1015.7 0.0
01/11:00am 27.8 27.8 13.7 42 8.4 NNW 6 11 3 6 1016.5 1016.3 0.0
01/10:30am 26.3 26.1 13.1 44 7.7 NW 6 15 3 8 1017.2 1017.0 0.0
01/10:00am 25.0 24.0 12.2 44 7.3 WNW 9 17 5 9 1017.7 1017.5 0.0
01/09:30am 24.6 24.5 13.8 51 6.4 NW 7 22 4 12 1018.0 1017.9 0.0
01/09:00am 22.9 20.8 12.5 52 5.9 N 15 24 8 13 1017.9 1017.8 0.0
01/08:30am 21.9 20.2 12.5 55 5.3 N 13 22 7 12 1018.0 1017.9 0.0
01/08:00am 21.2 19.8 12.3 57 5.0 NNE 11 20 6 11 1018.1 1018.0 0.0
01/07:30am 20.6 19.3 12.6 60 4.5 NNE 11 20 6 11 1018.0 1017.9 0.0
01/07:00am 19.7 18.4 12.5 63 4.0 NNE 11 17 6 9 1018.0 1017.9 0.0
01/06:30am 18.8 17.4 12.3 66 3.6 N 11 20 6 11 1017.6 1017.5 0.0
01/06:00am 18.2 16.4 12.2 68 3.3 N 13 19 7 10 1017.5 1017.4 0.0
01/05:30am 17.9 16.5 12.1 69 3.2 N 11 19 6 10 1017.4 1017.3 0.0
01/05:00am 17.7 16.7 12.2 70 3.0 N 9 24 5 13 1017.3 1017.2 0.0
01/04:30am 17.9 16.8 12.1 69 3.2 N 9 20 5 11 1017.3 1017.2 0.0
01/04:00am 17.8 16.8 12.3 70 3.0 NNW 9 19 5 10 1017.3 1017.2 0.0
01/03:30am 17.9 16.6 12.4 70 3.1 N 11 20 6 11 1017.3 1017.2 0.0
01/03:00am 18.2 17.3 12.6 70 3.1 N 9 15 5 8 1017.4 1017.3 0.0
01/02:30am 18.3 17.2 13.0 71 3.0 NNW 11 24 6 13 1017.6 1017.5 0.0
01/02:00am 18.0 17.6 13.1 73 2.8 NNW 7 13 4 7 1017.7 1017.6 0.0
01/01:30am 18.0 17.6 13.1 73 2.8 NNW 7 13 4 7 1018.0 1017.9 0.0
01/01:00am 18.1 18.0 13.2 73 2.8 NNW 6 13 3 7 1018.4 1018.3 0.0
01/12:30am 18.1 18.3 13.0 72 2.9 NNW 4 11 2 6 1018.5 1018.4 0.0
01/12:00am 18.3 18.2 13.4 73 2.8 NNW 6 13 3 7 1018.7 1018.6 0.0
 
Date/Time
EST
Temp
°C
App
Temp
°C
Dew
Point
Rel
Hum
%
Delta-T
°C
Wind Press
QNH
hPa
Press
MSL
hPa
Rain
since 9 am
mm
Dir
 
Spd
km/h
Gust
km/h
Spd
kts
Gust
kts
30/11:30pm 18.4 18.0 13.1 71 3.0 NNW 7 15 4 8 1018.9 1018.8 0.0
30/11:00pm 18.8 18.1 13.2 70 3.2 NNW 9 13 5 7 1019.0 1018.9 0.0
30/10:30pm 18.6 18.4 13.7 73 2.8 NNW 7 13 4 7 1019.0 1018.9 0.0
30/10:00pm 17.4 18.7 14.1 81 1.9 CALM 0 4 0 2 1019.1 1019.0 0.0
30/09:30pm 17.9 18.9 14.2 79 2.1 N 2 6 1 3 1019.2 1019.1 0.0
30/09:00pm 18.2 19.5 14.1 77 2.3 CALM 0 0 0 0 1019.3 1019.2 0.0
30/08:30pm 18.7 19.7 14.4 76 2.5 NNW 2 4 1 2 1019.2 1019.1 0.0
30/08:00pm 18.9 20.1 14.8 77 2.4 NNW 2 4 1 2 1019.0 1018.9 0.0
30/07:30pm 19.2 20.5 14.2 73 2.9 NNE 0 2 0 1 1018.9 1018.8 0.0
30/07:00pm 20.0 20.4 14.8 72 3.0 NNW 6 7 3 4 1018.5 1018.4 0.0
30/06:30pm 20.1 21.2 14.5 70 3.3 NNW 2 6 1 3 1018.4 1018.3 0.0
30/06:00pm 21.0 21.7 14.4 66 3.9 NNE 4 7 2 4 1018.1 1018.0 0.0
30/05:30pm 21.6 21.6 14.3 63 4.3 N 7 13 4 7 1017.8 1017.7 0.0
30/05:00pm 22.6 21.9 14.4 60 4.8 ENE 11 15 6 8 1017.6 1017.5 0.0
30/04:30pm 23.3 22.6 14.3 57 5.3 ENE 11 20 6 11 1017.4 1017.3 0.0
30/04:00pm 24.0 23.1 13.8 53 6.0 NNE 11 17 6 9 1017.2 1017.1 0.0
30/03:30pm 24.8 23.5 13.7 50 6.5 NE 13 24 7 13 1017.1 1017.0 0.0
30/03:00pm 25.6 24.2 14.4 50 6.7 ENE 15 22 8 12 1017.1 1017.0 0.0
30/02:30pm 25.8 24.3 14.3 49 6.9 NE 15 22 8 12 1017.2 1017.1 0.0
30/02:00pm 26.1 24.2 14.2 48 7.1 ENE 17 26 9 14 1017.2 1017.1 0.0
30/01:30pm 26.9 26.1 14.0 45 7.7 ENE 11 15 6 8 1017.6 1017.5 0.0
30/01:00pm 26.8 26.3 12.1 40 8.5 NNE 6 15 3 8 1018.1 1018.0 0.0
30/12:30pm 26.1 25.0 10.7 38 8.7 N 7 15 4 8 1018.6 1018.5 0.0
30/12:00pm 25.8 24.4 10.8 39 8.4 N 9 15 5 8 1019.2 1019.1 0.0
30/11:30am 25.4 24.3 11.9 43 7.7 NNW 9 15 5 8 1019.7 1019.6 0.0
30/11:00am 24.5 23.4 10.8 42 7.6 NNW 7 15 4 8 1020.2 1020.1 0.0
30/10:30am 24.2 23.2 12.2 47 6.9 N 9 15 5 8 1020.6 1020.5 0.0
30/10:00am 23.3 22.1 11.7 48 6.5 NNW 9 19 5 10 1021.1 1021.0 0.0
30/09:30am 22.7 20.9 10.8 47 6.6 NNW 11 19 6 10 1021.4 1021.3 0.0
30/09:00am 22.0 19.9 11.1 50 6.0 N 13 19 7 10 1021.6 1021.5 0.0
30/08:30am 21.7 20.9 12.8 57 5.1 NNW 9 15 5 8 1021.5 1021.4 0.0
30/08:00am 20.7 19.4 12.4 59 4.7 NW 11 19 6 10 1021.4 1021.3 0.0
30/07:30am 19.2 20.3 14.5 74 2.7 ENE 2 4 1 2 1021.3 1021.2 0.0
30/07:00am 16.3 17.4 13.4 83 1.6 CALM 0 0 0 0 1021.2 1021.1 0.0
30/06:30am 14.2 15.1 12.8 91 0.8 CALM 0 0 0 0 1020.9 1020.8 0.0
30/06:00am 12.6 13.1 11.7 94 0.5 CALM 0 0 0 0 1020.6 1020.5 0.0
30/05:30am 12.1 12.5 11.3 95 0.4 CALM 0 0 0 0 1020.2 1020.1 0.0
30/05:00am 12.3 12.7 11.4 94 0.5 CALM 0 0 0 0 1020.0 1019.9 0.0
30/04:30am 12.3 12.6 11.0 92 0.7 CALM 0 0 0 0 1019.8 1019.7 0.0
30/04:00am 12.6 13.0 11.2 91 0.7 CALM 0 0 0 0 1019.5 1019.4 0.0
30/03:30am 13.2 13.7 11.6 90 0.9 CALM 0 0 0 0 1019.4 1019.3 0.0
30/03:00am 13.2 13.4 10.7 85 1.3 CALM 0 0 0 0 1019.3 1019.2 0.0
30/02:30am 14.1 14.5 11.1 82 1.6 CALM 0 0 0 0 1019.4 1019.3 0.0
30/02:00am 15.0 15.4 11.4 79 1.9 CALM 0 0 0 0 1019.5 1019.4 0.0
30/01:30am 15.5 15.7 11.9 79 2.0 ENE 2 4 1 2 1019.4 1019.3 0.0
30/01:00am 15.2 15.6 11.4 78 2.0 CALM 0 0 0 0 1019.4 1019.3 0.0
30/12:30am 15.4 15.8 11.4 77 2.2 CALM 0 0 0 0 1019.8 1019.7 0.0
30/12:00am 15.9 15.8 12.1 78 2.1 E 4 6 2 3 1019.9 1019.8 0.0
 
Date/Time
EST
Temp
°C
App
Temp
°C
Dew
Point
Rel
Hum
%
Delta-T
°C
Wind Press
QNH
hPa
Press
MSL
hPa
Rain
since 9 am
mm
Dir
 
Spd
km/h
Gust
km/h
Spd
kts
Gust
kts
29/11:30pm 15.1 15.6 11.7 80 1.8 CALM 0 0 0 0 1020.1 1020.0 0.0
29/11:00pm 15.1 15.7 11.9 81 1.7 CALM 0 0 0 0 1020.5 1020.4 0.0
29/10:30pm 15.3 16.0 12.1 81 1.7 CALM 0 0 0 0 1020.5 1020.4 0.0
29/10:00pm 14.8 15.5 12.1 84 1.5 CALM 0 4 0 2 1020.5 1020.4 0.0
29/09:30pm 14.7 15.4 12.2 85 1.4 CALM 0 0 0 0 1020.7 1020.6 0.0
29/09:00pm 15.1 15.6 11.7 80 1.8 CALM 0 0 0 0 1020.7 1020.6 0.0
29/08:30pm 15.4 16.1 12.2 81 1.7 CALM 0 0 0 0 1020.5 1020.4 0.0
29/08:00pm 16.0 16.6 12.0 77 2.2 CALM 0 0 0 0 1020.3 1020.2 0.0
29/07:30pm 17.1 17.7 11.8 71 2.9 CALM 0 2 0 1 1020.0 1019.9 0.0
29/07:00pm 17.3 17.2 12.0 71 2.9 WNW 4 6 2 3 1019.4 1019.3 0.0
29/06:30pm 18.3 18.4 11.6 65 3.7 NW 2 4 1 2 1019.2 1019.1 0.0
29/06:00pm 19.6 18.9 11.4 59 4.5 NNE 6 9 3 5 1019.0 1018.9 0.0
29/05:30pm 20.3 19.4 11.2 56 5.0 ENE 7 13 4 7 1018.8 1018.7 0.0
29/05:00pm 21.1 19.8 11.2 53 5.5 NE 9 15 5 8 1018.5 1018.4 0.0
29/04:30pm 21.8 19.8 11.5 52 5.7 ENE 13 20 7 11 1018.1 1018.0 0.0
29/04:00pm 22.6 20.9 12.3 52 5.8 ENE 13 19 7 10 1017.9 1017.8 0.0
29/03:30pm 23.4 21.8 12.7 51 6.1 ENE 13 20 7 11 1017.7 1017.6 0.0
29/03:00pm 23.7 22.2 12.0 48 6.6 ENE 11 20 6 11 1017.6 1017.5 0.0
29/02:30pm 23.6 21.6 11.6 47 6.8 ENE 13 19 7 10 1017.7 1017.6 0.0
29/02:00pm 24.2 22.3 13.1 50 6.4 ENE 15 24 8 13 1017.7 1017.6 0.0
29/01:30pm 23.7 21.9 12.0 48 6.6 NE 13 20 7 11 1018.1 1018.0 0.0
29/01:00pm 23.7 22.0 12.4 49 6.5 ENE 13 24 7 13 1018.6 1018.5 0.0
29/12:30pm 23.6 21.7 12.9 51 6.2 E 15 24 8 13 1019.0 1018.9 0.0
29/12:00pm 23.7 22.5 12.7 50 6.3 ENE 11 22 6 12 1019.5 1019.4 0.0
29/11:30am 24.1 24.0 13.3 51 6.3 E 6 17 3 9 1019.9 1019.8 0.0
29/11:00am 23.3 21.9 12.3 50 6.3 ENE 11 17 6 9 1020.3 1020.2 0.0
29/10:30am 22.9 22.4 11.9 50 6.2 ENE 6 13 3 7 1020.8 1020.7 0.0
29/10:00am 22.2 20.8 11.0 49 6.2 ENE 9 15 5 8 1021.2 1021.1 0.0
29/09:30am 21.8 21.2 11.8 53 5.6 N 6 11 3 6 1021.5 1021.4 0.0
29/09:00am 21.3 20.7 11.6 54 5.4 NE 6 9 3 5 1021.7 1021.6 0.2
29/08:30am 20.4 19.6 11.6 57 4.9 E 7 9 4 5 1021.8 1021.7 0.2
29/08:00am 20.3 20.6 12.3 60 4.5 ENE 2 6 1 3 1021.9 1021.8 0.2
29/07:30am 18.4 19.9 14.7 79 2.1 CALM 0 0 0 0 1021.8 1021.7 0.2
29/07:00am 15.4 16.7 14.1 92 0.7 CALM 0 0 0 0 1021.6 1021.5 0.2
29/06:30am 14.1 15.2 13.5 96 0.3 CALM 0 0 0 0 1021.3 1021.2 0.2
29/06:00am 13.1 13.8 12.3 95 0.4 CALM 0 0 0 0 1020.8 1020.7 0.2
29/05:30am 12.9 13.6 12.3 96 0.3 CALM 0 0 0 0 1020.5 1020.4 0.2
29/05:00am 13.0 13.7 12.2 95 0.4 CALM 0 0 0 0 1020.3 1020.2 0.2
29/04:30am 13.3 14.1 12.5 95 0.4 CALM 0 0 0 0 1019.9 1019.8 0.2
29/04:00am 13.6 14.4 12.5 93 0.6 CALM 0 0 0 0 1019.7 1019.6 0.2
29/03:30am 13.8 14.7 13.0 95 0.4 CALM 0 0 0 0 1019.5 1019.4 0.2
29/03:00am 14.3 15.3 13.3 94 0.6 CALM 0 0 0 0 1019.8 1019.7 0.2
29/02:30am 14.2 15.2 13.2 94 0.6 CALM 0 0 0 0 1020.0 1019.9 0.2
29/02:00am 14.4 15.5 13.4 94 0.6 CALM 0 0 0 0 1020.4 1020.3 0.2
29/01:30am 14.3 15.3 13.3 94 0.6 CALM 0 0 0 0 1020.7 1020.6 0.2
29/01:00am 14.1 15.1 13.1 94 0.6 CALM 0 0 0 0 1021.0 1020.9 0.2
29/12:30am 14.1 15.0 13.0 93 0.6 CALM 0 0 0 0 1021.2 1021.1 0.2
29/12:00am 14.1 15.0 12.8 92 0.7 CALM 0 0 0 0 1021.5 1021.4 0.2
 
Date/Time
EST
Temp
°C
App
Temp
°C
Dew
Point
Rel
Hum
%
Delta-T
°C
Wind Press
QNH
hPa
Press
MSL
hPa
Rain
since 9 am
mm
Dir
 
Spd
km/h
Gust
km/h
Spd
kts
Gust
kts
28/11:30pm 14.2 15.1 12.9 92 0.7 CALM 0 0 0 0 1021.5 1021.4 0.2
28/11:00pm 14.5 15.5 13.2 92 0.7 CALM 0 0 0 0 1021.6 1021.5 0.2
28/10:30pm 14.4 15.4 13.1 92 0.7 CALM 0 0 0 0 1021.6 1021.5 0.2
28/10:00pm 14.3 15.1 12.7 90 0.9 CALM 0 0 0 0 1021.5 1021.4 0.2
28/09:30pm 14.6 15.5 12.8 89 1.0 CALM 0 0 0 0 1021.6 1021.5 0.2
28/09:00pm 14.3 15.1 12.7 90 0.9 CALM 0 0 0 0 1021.7 1021.6 0.2
28/08:30pm 14.7 15.5 12.7 88 1.1 CALM 0 0 0 0 1021.5 1021.4 0.2
28/08:00pm 15.3 16.1 12.4 83 1.6 CALM 0 0 0 0 1021.1 1021.0 0.2
28/07:30pm 15.6 16.4 12.4 81 1.8 CALM 0 0 0 0 1020.8 1020.7 0.2
28/07:00pm 16.3 17.0 12.3 77 2.2 CALM 0 4 0 2 1020.4 1020.3 0.2
28/06:30pm 16.9 17.6 12.2 74 2.6 CALM 0 0 0 0 1020.2 1020.1 0.2
28/06:00pm 18.4 19.2 12.4 68 3.3 CALM 0 0 0 0 1020.1 1020.0 0.2

Other Formats:

Comma delimited format used in spreadsheet applications
http://www.bom.gov.au/fwo/IDQ60801/IDQ60801.95572.axf

JavaScript Object Notation format (JSON) in row-major order
http://www.bom.gov.au/fwo/IDQ60801/IDQ60801.95572.json